Time;durP1;ratioP1;P1;durP2;ratioP2;P2;SDS_P1;SDS_P2;PMS_P1;PMS_P2;Temp;Humidity;BMP_temperature;BMP_pressure;BME280_temperature;BME280_humidity;BME280_pressure;Samples;Min_cycle;Max_cycle;Signal;HPM_P1;HPM_P2
2021/08/21 00:00:28;;;;;;;3.15;2.38;;;;;;;15.52;100.00;101584.22;6224240;28;20057;-78
2021/08/21 00:03:29;;;;;;;4.70;2.25;;;;;;;15.48;100.00;101586.19;6223817;28;20054;-78
2021/08/21 00:06:31;;;;;;;4.10;2.60;;;;;;;15.46;100.00;101583.63;6223949;28;20046;-79
2021/08/21 00:09:34;;;;;;;4.47;2.55;;;;;;;15.43;100.00;101578.50;6223625;28;20052;-77
2021/08/21 00:12:35;;;;;;;4.88;2.63;;;;;;;15.40;100.00;101583.16;6223710;28;20050;-78
2021/08/21 00:15:37;;;;;;;4.43;2.50;;;;;;;15.35;100.00;101586.09;6223527;28;20508;-79
2021/08/21 00:18:38;;;;;;;5.43;2.45;;;;;;;15.33;100.00;101587.97;6223811;28;20045;-78
2021/08/21 00:21:39;;;;;;;3.92;3.08;;;;;;;15.31;100.00;101587.22;6223346;28;20050;-78
2021/08/21 00:24:42;;;;;;;3.78;2.45;;;;;;;15.29;100.00;101582.94;6223543;28;20176;-79
2021/08/21 00:27:44;;;;;;;2.40;2.00;;;;;;;15.23;100.00;101590.31;6223451;28;20050;-77
2021/08/21 00:30:46;;;;;;;4.80;2.50;;;;;;;15.21;100.00;101589.56;6223426;28;20537;-79
2021/08/21 00:33:48;;;;;;;2.40;1.85;;;;;;;15.18;100.00;101586.25;6223082;28;20054;-78
2021/08/21 00:36:49;;;;;;;5.57;2.20;;;;;;;15.15;100.00;101587.25;6223460;28;20132;-78
2021/08/21 00:39:52;;;;;;;3.20;1.95;;;;;;;15.14;100.00;101582.06;6223160;28;20045;-78
2021/08/21 00:42:53;;;;;;;5.18;3.00;;;;;;;15.13;100.00;101580.38;6223353;28;20050;-78
2021/08/21 00:45:54;;;;;;;5.68;2.10;;;;;;;15.06;100.00;101584.31;6223419;28;20054;-77
2021/08/21 00:48:56;;;;;;;3.70;2.40;;;;;;;15.03;100.00;101571.25;6223398;28;20056;-78
2021/08/21 00:51:58;;;;;;;2.70;1.88;;;;;;;15.02;100.00;101574.84;6224162;28;20073;-79
2021/08/21 00:55:01;;;;;;;4.10;2.42;;;;;;;14.97;100.00;101575.97;6223531;28;20046;-79
2021/08/21 00:58:03;;;;;;;4.70;2.58;;;;;;;14.93;100.00;101581.53;6223912;28;20052;-77
2021/08/21 01:01:04;;;;;;;3.45;2.47;;;;;;;14.89;100.00;101586.13;6223720;28;20056;-77
2021/08/21 01:04:06;;;;;;;3.95;2.33;;;;;;;14.89;100.00;101595.88;6223640;28;20053;-79
2021/08/21 01:07:08;;;;;;;2.60;1.95;;;;;;;14.85;100.00;101587.28;6223961;28;20057;-79
2021/08/21 01:10:13;;;;;;;4.40;2.50;;;;;;;14.85;100.00;101586.41;6223445;28;20417;-80
2021/08/21 01:13:15;;;;;;;2.70;2.22;;;;;;;14.82;100.00;101574.22;6223684;28;20501;-79
2021/08/21 01:16:18;;;;;;;4.85;2.50;;;;;;;14.77;100.00;101581.56;6223374;28;20061;-79
2021/08/21 01:19:22;;;;;;;3.78;2.42;;;;;;;14.73;100.00;101579.19;6223456;28;20050;-78
2021/08/21 01:22:25;;;;;;;3.40;2.10;;;;;;;14.69;100.00;101575.84;6223259;28;20057;-78
2021/08/21 01:25:30;;;;;;;3.65;2.30;;;;;;;14.69;100.00;101573.22;6223172;28;20054;-80
2021/08/21 01:28:33;;;;;;;7.63;2.63;;;;;;;14.67;100.00;101568.03;6222789;28;20053;-78
2021/08/21 01:31:37;;;;;;;4.70;2.40;;;;;;;14.64;100.00;101570.84;6223646;28;20061;-79
2021/08/21 01:34:38;;;;;;;4.45;2.78;;;;;;;14.59;100.00;101569.41;6223523;28;20061;-79
2021/08/21 01:37:40;;;;;;;3.13;2.30;;;;;;;14.56;100.00;101569.56;6223199;28;20046;-75
2021/08/21 01:40:41;;;;;;;4.30;2.35;;;;;;;14.55;100.00;101566.06;6222690;28;20045;-77
2021/08/21 01:43:44;;;;;;;4.18;1.92;;;;;;;14.54;100.00;101568.81;6222631;28;20501;-78
2021/08/21 01:46:47;;;;;;;4.13;2.22;;;;;;;14.55;100.00;101576.66;6222957;28;20054;-78
2021/08/21 01:49:53;;;;;;;4.93;2.63;;;;;;;14.53;100.00;101575.00;6223100;28;20046;-77
2021/08/21 01:52:54;;;;;;;3.28;2.45;;;;;;;14.47;100.00;101574.38;6224332;28;20188;-77
2021/08/21 01:55:56;;;;;;;4.85;2.78;;;;;;;14.49;100.00;101576.13;6226987;28;20046;-78
2021/08/21 01:58:58;;;;;;;3.13;2.30;;;;;;;14.51;100.00;101574.25;6227272;28;20046;-76
2021/08/21 02:02:00;;;;;;;5.13;1.60;;;;;;;14.44;100.00;101573.69;6227055;28;20054;-78
2021/08/21 02:05:01;;;;;;;7.35;2.55;;;;;;;14.43;100.00;101583.44;6227206;28;20054;-77
2021/08/21 02:08:03;;;;;;;2.78;2.20;;;;;;;14.44;100.00;101576.34;6256678;22;20516;-81
2021/08/21 02:11:04;;;;;;;5.50;2.53;;;;;;;14.46;100.00;101585.91;6254458;28;20045;-81
2021/08/21 02:14:07;;;;;;;4.05;2.50;;;;;;;14.44;100.00;101589.56;6234182;28;20053;-81
2021/08/21 02:17:08;;;;;;;4.50;2.67;;;;;;;14.46;100.00;101593.84;6241181;28;20045;-81
2021/08/21 02:20:12;;;;;;;2.63;2.17;;;;;;;14.51;100.00;101587.47;6255217;28;20068;-81
2021/08/21 02:23:14;;;;;;;4.05;2.42;;;;;;;14.49;100.00;101594.63;6255907;28;20109;-82
2021/08/21 02:26:15;;;;;;;5.63;2.63;;;;;;;14.43;100.00;101593.16;6254631;28;20049;-81
2021/08/21 02:29:18;;;;;;;5.47;2.90;;;;;;;14.37;100.00;101597.00;6254501;28;20049;-81
2021/08/21 02:32:19;;;;;;;3.95;2.58;;;;;;;14.40;100.00;101598.66;6255130;28;20071;-80
2021/08/21 02:35:20;;;;;;;6.53;3.10;;;;;;;14.38;100.00;101587.28;6253556;28;20506;-81
2021/08/21 02:38:22;;;;;;;4.15;2.47;;;;;;;14.38;100.00;101585.50;6254017;28;20041;-81
2021/08/21 02:41:24;;;;;;;4.90;2.67;;;;;;;14.41;100.00;101589.78;6255102;28;20077;-81
2021/08/21 02:44:26;;;;;;;3.03;2.28;;;;;;;14.46;100.00;101588.56;6255162;28;20053;-81
2021/08/21 02:47:28;;;;;;;3.60;2.28;;;;;;;14.47;100.00;101595.56;6253921;28;20049;-81
2021/08/21 02:50:29;;;;;;;2.95;2.15;;;;;;;14.50;100.00;101593.72;6254194;28;20045;-81
2021/08/21 02:53:31;;;;;;;4.75;2.42;;;;;;;14.49;100.00;101589.34;6254003;28;20049;-81
2021/08/21 02:56:32;;;;;;;3.80;2.50;;;;;;;14.52;100.00;101591.84;6253094;28;20045;-81
2021/08/21 02:59:35;;;;;;;3.80;2.85;;;;;;;14.51;100.00;101592.78;6253649;28;20042;-81
2021/08/21 03:02:36;;;;;;;4.82;2.70;;;;;;;14.57;100.00;101587.97;6253075;28;20076;-81
2021/08/21 03:05:38;;;;;;;4.00;2.78;;;;;;;14.64;100.00;101594.63;6253102;28;20509;-81
2021/08/21 03:08:40;;;;;;;3.42;2.63;;;;;;;14.67;100.00;101585.66;6252823;28;20052;-81
2021/08/21 03:11:41;;;;;;;4.18;2.88;;;;;;;14.68;100.00;101588.25;6252758;28;20056;-81
2021/08/21 03:14:44;;;;;;;3.78;2.65;;;;;;;14.71;100.00;101589.84;6250123;28;20046;-81
2021/08/21 03:17:46;;;;;;;4.40;2.70;;;;;;;14.72;100.00;101596.84;6251592;28;20538;-81
2021/08/21 03:20:47;;;;;;;6.60;2.63;;;;;;;14.71;100.00;101593.34;6252456;28;20037;-81
2021/08/21 03:23:49;;;;;;;3.65;2.47;;;;;;;14.74;100.00;101599.41;6251164;28;20053;-81
2021/08/21 03:26:50;;;;;;;4.75;3.13;;;;;;;14.70;100.00;101590.78;6251372;28;20056;-81
2021/08/21 03:29:52;;;;;;;3.22;2.42;;;;;;;14.64;100.00;101599.09;6250747;28;20046;-80
2021/08/21 03:32:54;;;;;;;4.25;2.90;;;;;;;14.62;100.00;101599.16;6248141;28;20041;-80
2021/08/21 03:35:55;;;;;;;6.07;2.97;;;;;;;14.65;100.00;101595.50;6251274;28;20052;-81
2021/08/21 03:38:57;;;;;;;5.03;2.83;;;;;;;14.68;100.00;101590.03;6252568;28;20042;-81
2021/08/21 03:41:58;;;;;;;4.38;2.50;;;;;;;14.70;100.00;101596.94;6252495;28;20429;-81
2021/08/21 03:45:01;;;;;;;2.38;1.70;;;;;;;14.69;100.00;101589.94;6253169;28;20424;-81
2021/08/21 03:48:03;;;;;;;2.97;2.35;;;;;;;14.64;100.00;101591.16;6249422;28;20056;-81
2021/08/21 03:51:04;;;;;;;4.38;2.38;;;;;;;14.57;100.00;101589.78;6251375;28;20049;-81
2021/08/21 03:54:05;;;;;;;3.65;2.15;;;;;;;14.55;100.00;101591.66;6250267;28;20041;-81
2021/08/21 03:57:07;;;;;;;3.28;2.33;;;;;;;14.60;100.00;101593.09;6238402;28;20072;-81
2021/08/21 04:00:11;;;;;;;3.97;2.35;;;;;;;14.60;100.00;101582.53;6252018;28;20045;-81
2021/08/21 04:03:12;;;;;;;3.53;2.22;;;;;;;14.55;100.00;101596.97;6250683;28;20056;-81
2021/08/21 04:06:14;;;;;;;3.50;2.22;;;;;;;14.47;100.00;101598.19;6247752;28;20501;-81
2021/08/21 04:09:15;;;;;;;3.95;2.55;;;;;;;14.48;100.00;101601.72;6247722;28;20045;-81
2021/08/21 04:12:18;;;;;;;4.00;2.50;;;;;;;14.50;100.00;101599.88;6248382;28;20489;-81
2021/08/21 04:15:21;;;;;;;3.25;2.35;;;;;;;14.47;100.00;101603.47;6249758;28;20069;-81
2021/08/21 04:18:22;;;;;;;5.30;2.60;;;;;;;14.44;100.00;101606.31;6253028;28;20060;-81
2021/08/21 04:21:24;;;;;;;5.60;3.10;;;;;;;14.46;100.00;101607.06;6251529;28;20055;-81
2021/08/21 04:24:25;;;;;;;6.53;3.10;;;;;;;14.48;100.00;101599.06;6253002;28;20049;-80
2021/08/21 04:27:27;;;;;;;5.82;3.40;;;;;;;14.51;100.00;101608.66;6252078;28;20076;-81
2021/08/21 04:30:29;;;;;;;5.65;3.33;;;;;;;14.54;100.00;101608.47;6250930;28;20052;-81
2021/08/21 04:33:31;;;;;;;4.78;3.00;;;;;;;14.55;100.00;101604.91;6250633;28;20048;-81
2021/08/21 04:36:33;;;;;;;3.67;2.50;;;;;;;14.52;100.00;101610.34;6251223;28;20052;-81
2021/08/21 04:39:34;;;;;;;5.07;3.28;;;;;;;14.41;100.00;101611.78;6252837;28;20052;-81
2021/08/21 04:42:35;;;;;;;6.20;3.67;;;;;;;14.35;100.00;101625.34;6251562;28;20505;-81
2021/08/21 04:45:38;;;;;;;4.65;3.35;;;;;;;14.31;100.00;101621.16;6250833;28;20045;-81
2021/08/21 04:48:40;;;;;;;5.03;3.05;;;;;;;14.32;100.00;101619.38;6250990;28;20045;-81
2021/08/21 04:51:41;;;;;;;4.57;2.95;;;;;;;14.39;100.00;101624.22;6250904;28;20041;-81
2021/08/21 04:54:42;;;;;;;9.27;3.65;;;;;;;14.46;100.00;101630.03;6250235;28;20501;-81
2021/08/21 04:57:44;;;;;;;7.50;4.00;;;;;;;14.43;100.00;101627.53;6248664;28;20041;-81
2021/08/21 05:00:47;;;;;;;5.65;3.15;;;;;;;14.47;100.00;101623.78;6251546;28;20046;-81
2021/08/21 05:03:48;;;;;;;6.50;4.15;;;;;;;14.54;100.00;101624.34;6251049;28;20412;-81
2021/08/21 05:06:50;;;;;;;6.88;4.30;;;;;;;14.59;100.00;101633.72;6252056;28;20436;-80
2021/08/21 05:09:51;;;;;;;6.45;4.15;;;;;;;14.62;100.00;101630.03;6250963;28;20052;-81
2021/08/21 05:12:52;;;;;;;12.77;4.63;;;;;;;14.63;100.00;101627.34;6250645;28;20050;-80
2021/08/21 05:15:55;;;;;;;9.95;4.82;;;;;;;14.65;100.00;101625.44;6251081;28;20057;-81
2021/08/21 05:19:02;;;;;;;6.80;4.28;;;;;;;14.65;100.00;101625.44;6251625;28;20057;-80
2021/08/21 05:22:21;;;;;;;6.90;3.78;;;;;;;14.66;100.00;101632.44;6250731;28;20041;-82
2021/08/21 05:25:23;;;;;;;6.00;3.90;;;;;;;14.65;100.00;101633.38;6250270;28;20045;-82
2021/08/21 05:28:24;;;;;;;6.63;3.42;;;;;;;14.58;100.00;101636.44;6253925;28;20060;-82
2021/08/21 05:31:27;;;;;;;6.63;4.18;;;;;;;14.51;100.00;101627.16;6255272;28;20049;-81
2021/08/21 05:34:28;;;;;;;8.43;4.45;;;;;;;14.46;100.00;101636.16;6254953;28;20508;-81
2021/08/21 05:37:29;;;;;;;7.38;4.28;;;;;;;14.41;100.00;101630.28;6255048;28;20052;-81
2021/08/21 05:40:31;;;;;;;6.32;3.80;;;;;;;14.44;100.00;101634.53;6256650;28;20056;-81
2021/08/21 05:43:32;;;;;;;6.78;3.75;;;;;;;14.51;100.00;101643.03;6255756;28;20052;-81
2021/08/21 05:46:35;;;;;;;8.48;4.43;;;;;;;14.56;100.00;101639.19;6255405;28;20053;-80
2021/08/21 05:49:36;;;;;;;8.30;4.72;;;;;;;14.61;100.00;101638.94;6255076;28;20045;-81
2021/08/21 05:52:38;;;;;;;5.65;3.63;;;;;;;14.66;100.00;101650.09;6253618;28;20049;-80
2021/08/21 05:55:40;;;;;;;7.35;4.55;;;;;;;14.67;100.00;101643.88;6252127;28;20424;-81
2021/08/21 05:58:41;;;;;;;10.32;4.25;;;;;;;14.67;100.00;101639.47;6251112;28;20049;-80
2021/08/21 06:01:44;;;;;;;5.10;3.45;;;;;;;14.73;100.00;101640.91;6250570;28;20401;-82
2021/08/21 06:04:45;;;;;;;8.57;4.20;;;;;;;14.77;100.00;101649.53;6248536;28;20065;-81
2021/08/21 06:07:47;;;;;;;5.68;3.70;;;;;;;14.75;100.00;101649.59;6247603;28;20058;-81
2021/08/21 06:10:48;;;;;;;8.07;4.13;;;;;;;14.75;100.00;101646.09;6247660;28;20038;-81
2021/08/21 06:13:50;;;;;;;8.82;4.28;;;;;;;14.77;100.00;101652.16;6244980;28;20097;-81
2021/08/21 06:16:52;;;;;;;6.45;3.55;;;;;;;14.79;100.00;101648.47;6247461;28;20056;-81
2021/08/21 06:19:56;;;;;;;4.45;3.15;;;;;;;14.83;100.00;101654.44;6246955;28;20042;-82
2021/08/21 06:22:57;;;;;;;5.25;3.75;;;;;;;14.78;100.00;101649.41;6247470;28;20049;-81
2021/08/21 06:25:59;;;;;;;5.95;3.28;;;;;;;14.83;100.00;101649.16;6246741;28;20053;-81
2021/08/21 06:29:00;;;;;;;5.93;3.40;;;;;;;14.91;100.00;101654.88;6246959;28;20723;-81
2021/08/21 06:32:03;;;;;;;5.85;3.58;;;;;;;14.99;100.00;101652.66;6246837;28;20060;-81
2021/08/21 06:35:06;;;;;;;7.95;3.17;;;;;;;15.08;100.00;101653.88;6248195;28;20132;-82
2021/08/21 06:38:07;;;;;;;6.78;3.83;;;;;;;15.12;100.00;101650.13;6247979;28;20054;-81
2021/08/21 06:41:08;;;;;;;5.40;3.35;;;;;;;15.19;100.00;101652.34;6249340;28;20057;-82
2021/08/21 06:44:10;;;;;;;9.57;3.72;;;;;;;15.26;100.00;101651.97;6249758;28;20515;-81
2021/08/21 06:47:13;;;;;;;7.28;4.05;;;;;;;15.29;100.00;101655.31;6250993;28;20049;-81
2021/08/21 06:50:15;;;;;;;5.28;3.65;;;;;;;15.37;100.00;101652.22;6252451;28;20557;-82
2021/08/21 06:53:16;;;;;;;9.27;4.50;;;;;;;15.41;100.00;101651.94;6250853;28;20044;-81
2021/08/21 06:56:18;;;;;;;5.60;3.17;;;;;;;15.48;100.00;101644.47;6250871;28;20045;-82
2021/08/21 06:59:19;;;;;;;7.25;4.00;;;;;;;15.55;100.00;101653.78;6251285;28;20050;-81
2021/08/21 07:02:22;;;;;;;4.97;3.70;;;;;;;15.62;100.00;101651.59;6251394;28;20060;-82
2021/08/21 07:05:24;;;;;;;7.15;4.10;;;;;;;15.74;100.00;101656.19;6250600;28;20056;-82
2021/08/21 07:08:25;;;;;;;4.75;3.38;;;;;;;15.87;100.00;101654.50;6250917;28;20054;-81
2021/08/21 07:11:27;;;;;;;7.20;4.10;;;;;;;15.96;100.00;101650.44;6250828;28;20053;-81
2021/08/21 07:14:28;;;;;;;10.60;3.92;;;;;;;16.06;100.00;101654.22;6250609;28;20412;-81
2021/08/21 07:17:31;;;;;;;7.32;3.90;;;;;;;16.13;100.00;101647.59;6251889;28;20053;-82
2021/08/21 07:20:32;;;;;;;9.60;4.55;;;;;;;16.22;100.00;101652.34;6251350;28;20053;-82
2021/08/21 07:23:33;;;;;;;13.65;4.88;;;;;;;16.29;100.00;101655.44;6251268;28;20050;-81
2021/08/21 07:26:35;;;;;;;6.72;3.70;;;;;;;16.38;100.00;101648.72;6248526;28;20416;-81
2021/08/21 07:29:36;;;;;;;10.20;5.05;;;;;;;16.49;100.00;101654.19;6238022;28;20045;-80
2021/08/21 07:32:39;;;;;;;10.27;5.20;;;;;;;16.54;100.00;101651.25;6247771;28;20064;-80
2021/08/21 07:35:40;;;;;;;8.52;4.68;;;;;;;16.59;100.00;101657.97;6250530;28;20507;-80
2021/08/21 07:38:42;;;;;;;10.05;5.07;;;;;;;16.67;100.00;101657.47;6249679;28;20049;-80
2021/08/21 07:41:43;;;;;;;11.23;5.00;;;;;;;16.67;100.00;101660.97;6250117;28;20046;-80
2021/08/21 07:44:45;;;;;;;8.80;5.05;;;;;;;16.71;100.00;101666.91;6250398;28;20053;-80
2021/08/21 07:47:49;;;;;;;12.02;5.90;;;;;;;16.70;100.00;101666.06;6249353;28;20053;-80
2021/08/21 07:50:51;;;;;;;9.30;5.35;;;;;;;16.78;100.00;101659.47;6248711;28;20552;-80
2021/08/21 07:53:52;;;;;;;9.90;5.05;;;;;;;16.87;100.00;101667.69;6248421;28;20049;-81
2021/08/21 07:56:54;;;;;;;10.25;5.07;;;;;;;16.97;100.00;101660.81;6249216;28;20049;-80
2021/08/21 07:59:55;;;;;;;12.90;6.30;;;;;;;17.04;100.00;101669.25;6249387;28;20423;-80
2021/08/21 08:02:58;;;;;;;10.15;4.78;;;;;;;17.11;100.00;101662.56;6248778;28;20053;-80
2021/08/21 08:05:59;;;;;;;11.45;6.82;;;;;;;17.16;100.00;101662.25;6247599;28;20489;-78
2021/08/21 08:09:01;;;;;;;10.70;6.13;;;;;;;17.20;100.00;101667.25;6244903;28;20424;-78
2021/08/21 08:12:03;;;;;;;10.77;6.50;;;;;;;17.24;100.00;101665.25;6247490;28;20049;-78
2021/08/21 08:15:05;;;;;;;10.60;5.88;;;;;;;17.35;100.00;101665.41;6247636;28;20064;-77
2021/08/21 08:18:08;;;;;;;12.68;6.93;;;;;;;17.46;100.00;101662.00;6248009;28;20053;-78
2021/08/21 08:21:11;;;;;;;12.63;6.47;;;;;;;17.63;100.00;101666.19;6247998;28;20386;-78
2021/08/21 08:24:14;;;;;;;11.45;6.75;;;;;;;17.69;100.00;101671.06;6248066;28;20056;-78
2021/08/21 08:27:18;;;;;;;8.77;5.32;;;;;;;17.75;100.00;101666.22;6247410;28;20127;-79
2021/08/21 08:30:19;;;;;;;12.68;6.30;;;;;;;17.79;100.00;101671.31;6247585;28;20049;-79
2021/08/21 08:33:22;;;;;;;12.32;6.60;;;;;;;17.87;100.00;101672.50;6245855;28;20420;-78
2021/08/21 08:36:23;;;;;;;10.57;6.28;;;;;;;17.85;100.00;101668.22;6247031;28;20161;-78
2021/08/21 08:39:25;;;;;;;11.32;5.55;;;;;;;17.93;100.00;101666.75;6247625;28;20060;-78
2021/08/21 08:42:26;;;;;;;13.40;7.00;;;;;;;17.99;100.00;101666.34;6247957;28;20049;-78
2021/08/21 08:45:28;;;;;;;12.50;6.82;;;;;;;18.06;100.00;101668.56;6247332;28;20053;-78
2021/08/21 08:48:34;;;;;;;10.70;5.95;;;;;;;18.17;100.00;101671.31;6246836;28;20053;-78
2021/08/21 08:51:37;;;;;;;9.55;5.20;;;;;;;18.25;100.00;101661.81;6220046;28;20055;-80
2021/08/21 08:54:38;;;;;;;9.27;5.43;;;;;;;18.33;100.00;101668.41;6197440;28;20423;-79
2021/08/21 08:57:41;;;;;;;13.57;6.18;;;;;;;18.44;100.00;101676.47;6198389;28;20528;-81
2021/08/21 09:00:42;;;;;;;12.25;6.13;;;;;;;18.35;100.00;101664.69;6199364;28;20061;-79
2021/08/21 09:03:45;;;;;;;8.95;4.70;;;;;;;18.41;100.00;101669.56;6203186;28;20053;-80
2021/08/21 09:06:47;;;;;;;9.80;5.60;;;;;;;18.51;100.00;101672.41;6203139;28;20054;-79
2021/08/21 09:09:48;;;;;;;14.18;6.07;;;;;;;18.67;100.00;101672.19;6202124;28;20053;-81
2021/08/21 09:12:51;;;;;;;14.27;6.68;;;;;;;18.63;100.00;101670.69;6204994;28;20061;-80
2021/08/21 09:15:54;;;;;;;10.45;6.10;;;;;;;18.67;100.00;101675.69;6196086;28;20066;-81
2021/08/21 09:19:06;;;;;;;10.23;5.60;;;;;;;18.72;100.00;101670.06;6202965;28;20429;-81
2021/08/21 09:22:10;;;;;;;12.57;6.18;;;;;;;18.80;100.00;101673.00;6203239;28;20505;-81
2021/08/21 09:25:12;;;;;;;9.75;5.80;;;;;;;18.89;100.00;101672.31;6206289;28;20494;-79
2021/08/21 09:28:18;;;;;;;8.52;5.32;;;;;;;18.93;100.00;101672.94;6203689;28;20050;-77
2021/08/21 09:31:21;;;;;;;11.70;5.07;;;;;;;19.01;100.00;101673.22;6202359;28;20042;-78
2021/08/21 09:34:24;;;;;;;8.57;4.95;;;;;;;19.02;100.00;101673.09;6196523;28;20065;-78
2021/08/21 09:37:25;;;;;;;7.25;4.18;;;;;;;19.13;100.00;101669.66;6202668;28;20042;-80
2021/08/21 09:40:30;;;;;;;7.53;4.75;;;;;;;19.16;100.00;101664.09;6196466;28;20654;-79
2021/08/21 09:43:33;;;;;;;10.68;5.75;;;;;;;19.10;100.00;101664.56;6200770;28;20047;-82
2021/08/21 09:46:37;;;;;;;11.02;5.82;;;;;;;19.16;100.00;101658.75;6199125;28;20054;-80
2021/08/21 09:49:40;;;;;;;8.77;4.93;;;;;;;19.23;100.00;101664.50;6201017;28;20046;-78
2021/08/21 09:52:42;;;;;;;9.45;5.53;;;;;;;19.25;100.00;101663.41;6200377;28;20058;-79
2021/08/21 09:55:43;;;;;;;10.18;5.53;;;;;;;19.27;100.00;101657.97;6202758;28;20053;-79
2021/08/21 09:58:52;;;;;;;10.52;6.13;;;;;;;19.31;100.00;101662.09;6202216;28;20433;-79
2021/08/21 10:01:54;;;;;;;12.23;5.72;;;;;;;19.30;100.00;101656.88;6202310;28;20054;-78
2021/08/21 10:04:56;;;;;;;8.55;5.50;;;;;;;19.35;100.00;101657.38;6203797;28;20054;-80
2021/08/21 10:08:01;;;;;;;11.95;5.90;;;;;;;19.39;100.00;101658.84;6201790;28;20065;-78
2021/08/21 10:11:02;;;;;;;11.18;5.22;;;;;;;19.39;100.00;101658.84;6202174;28;20046;-78
2021/08/21 10:14:04;;;;;;;6.60;4.22;;;;;;;19.42;100.00;101654.13;6201134;28;20490;-79
2021/08/21 10:17:05;;;;;;;9.13;5.32;;;;;;;19.44;100.00;101656.66;6201402;28;20490;-78
2021/08/21 10:20:11;;;;;;;13.20;6.22;;;;;;;19.41;100.00;101648.94;6200477;28;20053;-78
2021/08/21 10:23:16;;;;;;;9.15;5.30;;;;;;;19.39;100.00;101650.84;6199402;28;20394;-79
2021/08/21 10:26:24;;;;;;;8.57;5.40;;;;;;;19.39;100.00;101648.19;6201682;28;20150;-79
2021/08/21 10:29:26;;;;;;;12.07;5.90;;;;;;;19.38;100.00;101652.66;6203684;28;20050;-81
2021/08/21 10:32:32;;;;;;;12.88;6.20;;;;;;;19.43;100.00;101653.16;6202490;28;20057;-78
2021/08/21 10:35:47;;;;;;;12.57;6.35;;;;;;;19.47;100.00;101648.44;6201979;28;20110;-80
2021/08/21 10:38:49;;;;;;;9.82;5.30;;;;;;;19.51;100.00;101650.75;6201115;28;20054;-78
2021/08/21 10:41:51;;;;;;;9.43;5.45;;;;;;;19.56;100.00;101649.56;6194645;28;20046;-79
2021/08/21 10:44:54;;;;;;;8.25;4.97;;;;;;;19.57;100.00;101643.25;6200782;28;20070;-78
2021/08/21 10:47:55;;;;;;;13.65;6.25;;;;;;;19.57;100.00;101645.91;6201579;28;20054;-78
2021/08/21 10:50:58;;;;;;;8.80;5.28;;;;;;;19.55;100.00;101640.72;6201100;28;20054;-78
2021/08/21 10:54:00;;;;;;;5.45;3.58;;;;;;;19.50;100.00;101640.22;6202735;28;20057;-78
2021/08/21 10:57:25;;;;;;;11.95;5.72;;;;;;;19.45;100.00;101642.41;6201886;28;20054;-78
2021/08/21 11:00:58;;;;;;;9.32;4.47;;;;;;;19.38;100.00;101639.34;6201436;28;20050;-78
2021/08/21 11:04:00;;;;;;;7.38;4.95;;;;;;;19.37;100.00;101636.78;6103042;28;20060;-78
2021/08/21 11:07:39;;;;;;;10.82;4.55;;;;;;;19.38;100.00;101638.50;6200867;28;20425;-78
2021/08/21 11:10:40;;;;;;;;;;;;;;;19.35;100.00;101639.59;6201088;28;20042;-78
2021/08/21 11:13:53;;;;;;;12.55;5.25;;;;;;;19.39;100.00;101643.69;6200696;28;19922;-78
2021/08/21 11:16:57;;;;;;;6.40;4.22;;;;;;;19.49;100.00;101642.03;6200726;28;20054;-78
2021/08/21 11:19:58;;;;;;;8.35;5.05;;;;;;;19.74;100.00;101632.16;6200920;28;20061;-77
2021/08/21 11:23:20;;;;;;;10.93;5.20;;;;;;;20.08;100.00;101632.19;6200459;28;20058;-77
2021/08/21 11:26:23;;;;;;;9.30;5.13;;;;;;;20.17;100.00;101642.16;6198713;28;20062;-78
2021/08/21 11:29:24;;;;;;;8.60;5.03;;;;;;;20.44;100.00;101631.06;6200383;28;20086;-78
2021/08/21 11:32:26;;;;;;;9.70;5.05;;;;;;;20.48;100.00;101636.06;6199497;28;20042;-78
2021/08/21 11:35:31;;;;;;;10.48;5.20;;;;;;;20.40;100.00;101635.81;6199884;28;20057;-77
2021/08/21 11:38:36;;;;;;;7.72;5.00;;;;;;;20.28;100.00;101634.13;6199733;28;20050;-77
2021/08/21 11:41:37;;;;;;;9.95;4.90;;;;;;;20.22;100.00;101637.28;6200086;28;20050;-76
2021/08/21 11:44:38;;;;;;;5.65;3.95;;;;;;;20.21;100.00;101632.91;6199240;28;20050;-77
2021/08/21 11:47:40;;;;;;;9.70;4.97;;;;;;;20.14;100.00;101631.72;6199254;28;20524;-77
2021/08/21 11:50:43;;;;;;;9.57;4.55;;;;;;;20.12;100.00;101630.97;6197471;28;20053;-77
2021/08/21 11:53:45;;;;;;;8.07;4.43;;;;;;;20.06;100.00;101624.28;6197387;28;20046;-78
2021/08/21 11:56:57;;;;;;;8.23;4.68;;;;;;;20.06;100.00;101626.97;6199957;28;20046;-76
2021/08/21 12:00:11;;;;;;;9.43;4.90;;;;;;;20.09;100.00;101631.22;6197819;28;20061;-78
2021/08/21 12:03:15;;;;;;;8.90;4.38;;;;;;;20.16;100.00;101629.75;6197404;28;20417;-78
2021/08/21 12:06:21;;;;;;;8.60;3.90;;;;;;;20.34;100.00;101622.09;6195422;28;20509;-78
2021/08/21 12:09:24;;;;;;;8.73;4.95;;;;;;;20.68;100.00;101621.09;6198704;28;20046;-78
2021/08/21 12:12:26;;;;;;;8.63;4.80;;;;;;;20.74;100.00;101617.06;6197760;28;20042;-77
2021/08/21 12:15:29;;;;;;;10.10;5.15;;;;;;;21.10;99.91;101618.50;6196773;28;20050;-78
2021/08/21 12:18:33;;;;;;;6.65;4.35;;;;;;;21.65;93.92;101618.31;6194684;28;20054;-79
2021/08/21 12:21:36;;;;;;;7.45;4.38;;;;;;;21.87;94.42;101623.50;6199025;28;20054;-78
2021/08/21 12:24:51;;;;;;;7.70;4.95;;;;;;;21.70;91.51;101608.91;6197964;28;20050;-78
2021/08/21 12:28:09;;;;;;;7.93;3.80;;;;;;;21.92;92.83;101605.22;6197591;28;20577;-78
2021/08/21 12:31:12;;;;;;;6.80;4.20;;;;;;;22.42;88.85;101601.75;6195511;28;20038;-78
2021/08/21 12:34:17;;;;;;;7.38;3.97;;;;;;;22.48;89.53;101609.22;6197646;28;20410;-78
2021/08/21 12:37:22;;;;;;;6.72;3.70;;;;;;;22.44;88.71;101610.50;6199066;28;20058;-78
2021/08/21 12:40:24;;;;;;;9.50;5.18;;;;;;;22.39;84.61;101602.88;6198907;28;20132;-78
2021/08/21 12:43:28;;;;;;;7.68;4.72;;;;;;;22.25;85.74;101593.38;6198449;28;20050;-78
2021/08/21 12:46:31;;;;;;;6.05;3.60;;;;;;;22.08;84.15;101594.03;6199052;28;20142;-77
2021/08/21 12:49:35;;;;;;;8.25;4.78;;;;;;;22.50;85.69;101588.50;6198154;28;20058;-77
2021/08/21 12:52:37;;;;;;;6.70;4.00;;;;;;;22.47;86.04;101591.47;6198913;28;20050;-79
2021/08/21 12:55:40;;;;;;;6.30;3.22;;;;;;;22.15;89.44;101587.16;6198296;28;20054;-79
2021/08/21 12:58:41;;;;;;;6.38;3.45;;;;;;;22.04;91.19;101597.94;6198320;28;20069;-79
2021/08/21 13:01:42;;;;;;;7.55;4.38;;;;;;;22.60;89.97;101586.69;6198566;28;20046;-77
2021/08/21 13:04:56;;;;;;;7.18;4.57;;;;;;;22.91;84.39;101589.28;6198271;28;20546;-78
2021/08/21 13:08:05;;;;;;;7.43;4.60;;;;;;;23.21;83.43;101580.19;6198199;28;20050;-77
2021/08/21 13:11:09;;;;;;;5.25;3.78;;;;;;;23.59;80.11;101578.44;6198418;28;20495;-78
2021/08/21 13:14:11;;;;;;;7.05;4.22;;;;;;;23.82;77.70;101571.72;6198183;28;20055;-78
2021/08/21 13:17:12;;;;;;;7.90;4.63;;;;;;;23.91;78.63;101583.41;6199052;28;20421;-77
2021/08/21 13:20:15;;;;;;;6.15;3.95;;;;;;;23.41;77.09;101567.59;6198862;28;20066;-78
2021/08/21 13:23:16;;;;;;;8.13;4.55;;;;;;;22.89;77.89;101551.91;6198862;28;20054;-77
2021/08/21 13:26:19;;;;;;;8.27;3.72;;;;;;;22.51;81.48;101558.88;6198828;28;20046;-78
2021/08/21 13:29:21;;;;;;;6.35;4.32;;;;;;;22.23;82.83;101554.34;6198245;28;20086;-78
2021/08/21 13:32:22;;;;;;;7.03;4.18;;;;;;;22.44;80.69;101555.09;6198183;28;20042;-78
2021/08/21 13:35:24;;;;;;;5.82;3.90;;;;;;;22.46;83.54;101555.78;6197831;28;20057;-79
2021/08/21 13:38:25;;;;;;;4.97;3.38;;;;;;;22.28;85.12;101541.38;6198347;28;20050;-79
2021/08/21 13:41:28;;;;;;;4.97;3.53;;;;;;;22.14;88.99;101539.09;6197588;28;20046;-77
2021/08/21 13:44:29;;;;;;;6.25;3.92;;;;;;;22.01;88.13;101542.00;6197480;28;20053;-77
2021/08/21 13:47:31;;;;;;;5.10;3.17;;;;;;;21.93;89.80;101541.81;6197950;28;20057;-78
2021/08/21 13:50:32;;;;;;;5.00;3.13;;;;;;;21.82;89.38;101540.09;6201856;28;20061;-79
2021/08/21 13:53:34;;;;;;;6.07;4.10;;;;;;;21.98;88.68;101532.44;6202139;28;20053;-78
2021/08/21 13:56:37;;;;;;;4.70;3.53;;;;;;;22.62;87.52;101530.25;6203068;28;20050;-78
2021/08/21 13:59:40;;;;;;;6.50;3.53;;;;;;;22.81;84.96;101532.97;6202385;28;20050;-77